createdAt,value
2022-08-11T00:02:02.400Z,18.29
2022-08-11T00:04:39.837Z,18.34
2022-08-11T00:10:32.104Z,18.30
2022-08-11T00:13:21.738Z,18.23
2022-08-11T00:20:11.857Z,18.43
2022-08-11T00:22:24.108Z,18.31
2022-08-11T00:24:57.205Z,18.08
2022-08-11T00:27:40.741Z,17.96
2022-08-11T00:30:18.028Z,17.97
2022-08-11T00:33:01.769Z,18.02
2022-08-11T00:35:53.931Z,17.98
2022-08-11T00:38:30.058Z,17.84
2022-08-11T00:41:49.368Z,17.74
2022-08-11T00:44:47.525Z,17.77
2022-08-11T00:48:14.314Z,17.93
2022-08-11T00:51:57.665Z,17.71
2022-08-11T00:55:23.428Z,18.03
2022-08-11T00:58:50.761Z,17.77
2022-08-11T01:01:18.177Z,17.51
2022-08-11T01:04:34.737Z,17.66
2022-08-11T01:08:02.099Z,17.46
2022-08-11T01:11:06.732Z,17.54
2022-08-11T01:14:26.121Z,17.69
2022-08-11T01:18:01.687Z,17.60
2022-08-11T01:21:34.708Z,17.61
2022-08-11T01:25:14.830Z,17.47
2022-08-11T01:28:19.066Z,17.41
2022-08-11T01:31:34.355Z,17.33
2022-08-11T01:35:01.422Z,17.30
2022-08-11T01:38:34.974Z,16.88
2022-08-11T01:41:53.207Z,17.11
2022-08-11T01:45:03.997Z,17.14
2022-08-11T01:48:22.364Z,17.08
2022-08-11T01:51:26.877Z,17.14
2022-08-11T01:54:17.234Z,17.14
2022-08-11T01:57:51.251Z,17.01
2022-08-11T02:00:29.001Z,16.92
2022-08-11T02:03:24.464Z,17.08
2022-08-11T02:06:54.735Z,16.88
2022-08-11T02:10:00.247Z,16.82
2022-08-11T02:12:52.955Z,16.85
2022-08-11T02:15:39.355Z,16.63
2022-08-11T02:18:24.228Z,16.74
2022-08-11T02:21:26.459Z,16.81
2022-08-11T02:24:08.249Z,16.58
2022-08-11T02:26:46.741Z,16.60
2022-08-11T02:29:28.708Z,16.75
2022-08-11T02:32:46.557Z,16.69
2022-08-11T02:35:42.811Z,16.48
2022-08-11T02:38:54.492Z,16.41
2022-08-11T02:42:32.488Z,16.32
2022-08-11T02:45:49.051Z,16.49
2022-08-11T02:49:15.694Z,16.53
2022-08-11T02:52:07.183Z,16.30
2022-08-11T02:55:02.397Z,16.32
2022-08-11T02:58:22.076Z,16.14
2022-08-11T03:01:11.777Z,16.17
2022-08-11T03:04:18.019Z,16.11
2022-08-11T03:07:29.310Z,16.08
2022-08-11T03:10:30.875Z,16.04
2022-08-11T03:13:40.114Z,15.83
2022-08-11T03:16:53.167Z,15.98
2022-08-11T03:20:03.666Z,15.99
2022-08-11T03:23:01.788Z,15.93
2022-08-11T03:26:03.156Z,15.98
2022-08-11T03:28:54.829Z,16.01
2022-08-11T03:31:54.706Z,15.82
2022-08-11T03:34:28.426Z,15.86
2022-08-11T03:37:52.989Z,15.81
2022-08-11T03:40:48.309Z,15.87
2022-08-11T03:44:04.953Z,15.86
2022-08-11T03:47:05.184Z,15.82
2022-08-11T03:50:12.109Z,15.76
2022-08-11T03:53:35.794Z,15.69
2022-08-11T03:56:49.472Z,15.64
2022-08-11T04:00:11.900Z,15.64
2022-08-11T04:03:20.403Z,15.69
2022-08-11T04:06:37.648Z,15.50
2022-08-11T04:09:46.502Z,15.66
2022-08-11T04:12:59.266Z,15.73
2022-08-11T04:16:11.551Z,15.70
2022-08-11T04:19:47.484Z,15.62
2022-08-11T04:23:07.394Z,15.71
2022-08-11T04:26:44.169Z,15.76
2022-08-11T04:30:03.913Z,15.88
2022-08-11T04:32:59.286Z,15.97
2022-08-11T04:36:53.703Z,16.15
2022-08-11T04:39:34.509Z,16.26
2022-08-11T04:43:22.457Z,16.27
2022-08-11T04:46:51.434Z,16.40
2022-08-11T04:50:33.961Z,16.69
2022-08-11T04:53:53.432Z,16.70
2022-08-11T04:56:44.698Z,16.86
2022-08-11T05:00:30.123Z,17.00
2022-08-11T05:03:46.575Z,17.28
2022-08-11T05:07:06.504Z,17.51
2022-08-11T05:10:16.099Z,17.70
2022-08-11T05:13:30.022Z,17.94
2022-08-11T05:16:26.345Z,18.02
2022-08-11T05:19:19.266Z,18.07
2022-08-11T05:22:17.923Z,18.21
2022-08-11T05:25:10.942Z,18.22
2022-08-11T05:28:33.918Z,18.71
2022-08-11T05:31:33.953Z,19.16
2022-08-11T05:34:41.558Z,18.88
2022-08-11T05:37:33.815Z,19.55
2022-08-11T05:40:31.850Z,19.65
2022-08-11T05:43:32.284Z,19.51
2022-08-11T05:46:26.196Z,19.64
2022-08-11T05:49:13.029Z,20.01
2022-08-11T05:52:05.434Z,19.77
2022-08-11T05:55:06.130Z,20.23
2022-08-11T05:57:48.972Z,20.32
2022-08-11T06:00:20.444Z,20.43
2022-08-11T06:02:55.705Z,20.10
2022-08-11T06:05:43.234Z,20.08
2022-08-11T06:08:13.780Z,20.24
2022-08-11T06:10:46.191Z,20.68
2022-08-11T06:13:17.572Z,20.94
2022-08-11T06:15:52.077Z,21.25
2022-08-11T06:18:20.497Z,21.60
2022-08-11T06:21:00.404Z,21.88
2022-08-11T06:23:33.629Z,22.38
2022-08-11T06:26:14.339Z,21.74
2022-08-11T06:28:45.880Z,22.25
2022-08-11T06:31:25.662Z,22.27
2022-08-11T06:34:53.148Z,22.71
2022-08-11T06:38:17.892Z,22.80
2022-08-11T06:41:30.530Z,22.44
2022-08-11T06:44:13.082Z,22.42
2022-08-11T06:46:47.571Z,22.62
2022-08-11T06:49:50.658Z,22.87
2022-08-11T06:52:35.301Z,22.55
2022-08-11T06:55:56.671Z,22.87
2022-08-11T06:58:54.266Z,23.26
2022-08-11T07:02:15.492Z,23.26
2022-08-11T07:05:04.223Z,23.05
2022-08-11T07:08:36.105Z,23.26
2022-08-11T07:12:03.188Z,23.71
2022-08-11T07:14:51.396Z,23.53
2022-08-11T07:17:25.113Z,23.52
2022-08-11T07:20:20.100Z,23.22
2022-08-11T07:23:20.371Z,23.73
2022-08-11T07:26:12.810Z,23.88
2022-08-11T07:28:57.967Z,24.00
2022-08-11T07:31:31.374Z,24.26
2022-08-11T07:34:20.541Z,24.46
2022-08-11T07:37:03.228Z,24.48
2022-08-11T07:39:37.853Z,24.61
2022-08-11T07:42:13.446Z,24.79
2022-08-11T07:45:05.560Z,24.71
2022-08-11T07:47:54.092Z,24.43
2022-08-11T07:50:41.005Z,24.63
2022-08-11T07:53:08.712Z,24.47
2022-08-11T07:55:51.099Z,24.80
2022-08-11T07:58:45.759Z,25.11
2022-08-11T08:01:50.313Z,25.08
2022-08-11T08:04:38.350Z,25.16
2022-08-11T08:07:24.421Z,25.21
2022-08-11T08:10:15.871Z,25.39
2022-08-11T08:13:02.505Z,25.68
2022-08-11T08:15:50.267Z,26.07
2022-08-11T08:18:27.074Z,26.20
2022-08-11T08:21:12.089Z,26.16
2022-08-11T08:23:46.612Z,26.22
2022-08-11T08:26:35.025Z,26.29
2022-08-11T08:29:25.381Z,25.84
2022-08-11T08:31:53.189Z,26.06
2022-08-11T08:34:21.356Z,26.65
2022-08-11T08:36:51.574Z,27.05
2022-08-11T08:39:23.311Z,27.00
2022-08-11T08:41:56.055Z,26.83
2022-08-11T08:44:42.032Z,27.25
2022-08-11T08:47:41.709Z,27.38
2022-08-11T08:50:16.948Z,27.55
2022-08-11T08:53:01.660Z,27.52
2022-08-11T08:55:34.508Z,27.75
2022-08-11T08:58:02.449Z,27.82
2022-08-11T09:00:47.121Z,27.99
2022-08-11T09:06:07.312Z,28.29
2022-08-11T09:08:35.493Z,27.91
2022-08-11T09:11:24.280Z,27.47
2022-08-11T09:14:05.120Z,28.03
2022-08-11T09:16:36.139Z,28.41
2022-08-11T09:19:04.019Z,28.56
2022-08-11T09:21:48.853Z,27.87
2022-08-11T09:24:38.099Z,28.13
2022-08-11T09:27:08.411Z,28.45
2022-08-11T09:29:38.025Z,28.68
2022-08-11T09:32:07.154Z,28.63
2022-08-11T09:34:37.252Z,29.02
2022-08-11T09:37:54.686Z,28.95
2022-08-11T09:40:29.233Z,29.08
2022-08-11T09:43:25.410Z,29.13
2022-08-11T09:45:54.622Z,28.86
2022-08-11T09:48:26.128Z,28.88
2022-08-11T09:50:59.682Z,29.16
2022-08-11T09:53:36.182Z,29.49
2022-08-11T09:56:35.245Z,29.80
2022-08-11T09:59:04.760Z,30.68
2022-08-11T10:01:47.363Z,31.12
2022-08-11T10:04:28.695Z,31.67
2022-08-11T10:07:03.448Z,31.40
2022-08-11T10:10:01.413Z,29.80
2022-08-11T10:12:42.187Z,29.98
2022-08-11T10:15:34.147Z,30.58
2022-08-11T10:18:37.644Z,30.87
2022-08-11T10:21:44.191Z,30.75
2022-08-11T10:24:31.859Z,30.16
2022-08-11T10:27:00.645Z,29.98
2022-08-11T10:29:54.713Z,30.53
2022-08-11T10:32:59.448Z,30.88
2022-08-11T10:35:32.599Z,30.26
2022-08-11T10:38:07.700Z,30.79
2022-08-11T10:41:07.428Z,31.71
2022-08-11T10:44:01.378Z,31.64
2022-08-11T10:46:50.965Z,32.77
2022-08-11T10:49:20.559Z,30.67
2022-08-11T10:52:07.094Z,30.27
2022-08-11T10:55:00.684Z,30.58
2022-08-11T10:58:07.484Z,29.88
2022-08-11T11:00:36.275Z,31.48
2022-08-11T11:03:22.298Z,31.85
2022-08-11T11:06:27.830Z,31.05
2022-08-11T11:08:57.488Z,32.34
2022-08-11T11:11:52.234Z,31.61
2022-08-11T11:14:45.746Z,32.05
2022-08-11T11:17:15.704Z,32.92
2022-08-11T11:19:44.958Z,32.19
2022-08-11T11:22:33.697Z,31.36
2022-08-11T11:25:23.167Z,32.98
2022-08-11T11:28:56.676Z,31.57
2022-08-11T11:32:12.151Z,31.59
2022-08-11T11:35:06.361Z,31.61
2022-08-11T11:37:35.612Z,31.64
2022-08-11T11:40:14.533Z,31.90
2022-08-11T11:42:46.256Z,31.38
2022-08-11T11:45:23.374Z,32.75
2022-08-11T11:47:56.168Z,34.19
2022-08-11T11:50:42.925Z,34.67
2022-08-11T11:53:12.312Z,33.52
2022-08-11T11:55:40.619Z,33.60
2022-08-11T11:58:31.495Z,32.89
2022-08-11T12:01:19.903Z,33.14
2022-08-11T12:03:50.984Z,33.63
2022-08-11T12:06:22.135Z,33.67
2022-08-11T12:08:53.654Z,33.12
2022-08-11T12:11:44.267Z,34.33
2022-08-11T12:14:12.621Z,31.37
2022-08-11T12:16:43.602Z,32.12
2022-08-11T12:19:17.712Z,31.99
2022-08-11T12:22:04.515Z,32.73
2022-08-11T12:24:53.494Z,33.65
2022-08-11T12:27:25.963Z,32.28
2022-08-11T12:30:13.724Z,33.90
2022-08-11T12:32:42.839Z,33.85
2022-08-11T12:35:11.356Z,33.27
2022-08-11T12:37:47.599Z,33.72
2022-08-11T12:41:11.753Z,32.69
2022-08-11T12:43:56.955Z,32.87
2022-08-11T12:46:34.479Z,32.29
2022-08-11T12:49:33.158Z,33.29
2022-08-11T12:52:15.803Z,32.76
2022-08-11T12:55:39.372Z,32.57
2022-08-11T12:58:15.897Z,33.04
2022-08-11T13:01:04.155Z,32.97
2022-08-11T13:03:56.663Z,32.48
2022-08-11T13:06:26.163Z,32.29
2022-08-11T13:09:00.998Z,32.39
2022-08-11T13:12:03.492Z,33.44
2022-08-11T13:14:33.150Z,35.87
2022-08-11T13:17:20.821Z,35.15
2022-08-11T13:20:12.564Z,34.97
2022-08-11T13:22:45.819Z,32.77
2022-08-11T13:25:16.192Z,34.12
2022-08-11T13:27:46.474Z,33.64
2022-08-11T13:30:43.067Z,33.67
2022-08-11T13:33:16.910Z,33.13
2022-08-11T13:35:49.647Z,34.53
2022-08-11T13:38:20.437Z,33.24
2022-08-11T13:40:56.146Z,33.02
2022-08-11T13:43:24.847Z,34.55
2022-08-11T13:46:14.264Z,32.93
2022-08-11T13:48:42.453Z,32.99
2022-08-11T13:51:34.764Z,32.29
2022-08-11T13:54:23.956Z,33.25
2022-08-11T13:57:01.197Z,32.59
2022-08-11T13:59:30.815Z,33.32
2022-08-11T14:02:35.508Z,33.72
2022-08-11T14:05:25.522Z,33.37
2022-08-11T14:08:01.039Z,33.30
2022-08-11T14:10:34.724Z,33.44
2022-08-11T14:13:42.467Z,34.02
2022-08-11T14:16:41.291Z,33.83
2022-08-11T14:19:14.229Z,34.10
2022-08-11T14:22:07.423Z,33.78
2022-08-11T14:24:45.069Z,33.98
2022-08-11T14:28:30.078Z,32.97
2022-08-11T14:30:01.831Z,33.04
2022-08-11T14:32:29.393Z,32.75
2022-08-11T14:34:58.789Z,32.39
2022-08-11T14:37:27.900Z,33.37
2022-08-11T14:40:22.433Z,34.07
2022-08-11T14:43:12.069Z,32.67
2022-08-11T14:45:59.081Z,33.78
2022-08-11T14:48:27.242Z,34.06
2022-08-11T14:50:54.727Z,33.12
2022-08-11T14:53:23.381Z,33.98
2022-08-11T14:56:10.469Z,33.38
2022-08-11T14:58:41.860Z,34.27
2022-08-11T15:01:30.010Z,33.39
2022-08-11T15:04:25.038Z,33.01
2022-08-11T15:06:47.254Z,33.31
2022-08-11T15:09:15.253Z,33.57
2022-08-11T15:12:03.064Z,32.56
2022-08-11T15:14:49.369Z,33.01
2022-08-11T15:17:24.076Z,32.67
2022-08-11T15:20:26.554Z,32.77
2022-08-11T15:23:25.967Z,32.36
2022-08-11T15:26:12.166Z,32.68
2022-08-11T15:29:14.506Z,32.79
2022-08-11T15:32:00.271Z,32.45
2022-08-11T15:34:47.927Z,32.78
2022-08-11T15:37:27.765Z,33.86
2022-08-11T15:40:31.735Z,32.38
2022-08-11T15:44:06.819Z,33.03
2022-08-11T15:46:50.329Z,32.38
2022-08-11T15:50:13.197Z,32.22
2022-08-11T15:52:34.631Z,32.38
2022-08-11T15:55:08.600Z,32.22
2022-08-11T15:58:08.803Z,32.61
2022-08-11T16:01:10.849Z,33.04
2022-08-11T16:04:13.240Z,32.94
2022-08-11T16:06:58.447Z,33.06
2022-08-11T16:09:48.144Z,31.38
2022-08-11T16:12:33.024Z,32.10
2022-08-11T16:15:29.677Z,32.53
2022-08-11T16:18:03.970Z,32.06
2022-08-11T16:20:33.238Z,32.50
2022-08-11T16:23:06.598Z,31.33
2022-08-11T16:27:04.602Z,32.08
2022-08-11T16:28:24.838Z,31.93
2022-08-11T16:30:54.056Z,31.81
2022-08-11T16:33:51.170Z,31.48
2022-08-11T16:36:32.935Z,30.44
2022-08-11T16:39:01.589Z,31.65
2022-08-11T16:41:53.625Z,31.07
2022-08-11T16:44:42.434Z,31.32
2022-08-11T16:47:18.233Z,30.99
2022-08-11T16:50:07.409Z,31.04
2022-08-11T16:52:34.939Z,30.60
2022-08-11T16:55:03.778Z,30.28
2022-08-11T16:57:52.822Z,30.50
2022-08-11T17:00:19.955Z,29.96
2022-08-11T17:03:13.009Z,29.69
2022-08-11T17:06:09.893Z,29.49
2022-08-11T17:09:11.202Z,29.50
2022-08-11T17:12:16.322Z,29.12
2022-08-11T17:14:59.487Z,29.38
2022-08-11T17:17:36.659Z,29.37
2022-08-11T17:20:40.091Z,29.51
2022-08-11T17:23:17.891Z,28.97
2022-08-11T17:26:03.525Z,28.72
2022-08-11T17:28:33.600Z,29.21
2022-08-11T17:31:22.644Z,28.91
2022-08-11T17:34:10.218Z,28.74
2022-08-11T17:36:41.548Z,28.55
2022-08-11T17:39:13.743Z,28.45
2022-08-11T17:42:00.556Z,28.53
2022-08-11T17:44:48.410Z,28.25
2022-08-11T17:47:36.598Z,28.29
2022-08-11T17:50:15.956Z,28.04
2022-08-11T17:53:05.820Z,28.07
2022-08-11T17:55:57.911Z,28.04
2022-08-11T17:58:45.134Z,27.87
2022-08-11T18:01:14.796Z,28.01
2022-08-11T18:03:58.081Z,27.73
2022-08-11T18:06:33.735Z,27.81
2022-08-11T18:09:26.380Z,27.54
2022-08-11T18:12:14.126Z,27.35
2022-08-11T18:15:05.956Z,27.48
2022-08-11T18:17:52.852Z,27.56
2022-08-11T18:20:39.103Z,27.43
2022-08-11T18:23:45.834Z,27.08
2022-08-11T18:26:40.267Z,26.97
2022-08-11T18:29:28.068Z,26.55
2022-08-11T18:32:22.106Z,26.75
2022-08-11T18:35:11.295Z,26.60
2022-08-11T18:38:07.818Z,26.33
2022-08-11T18:40:56.221Z,26.02
2022-08-11T18:43:45.355Z,25.64
2022-08-11T18:46:35.054Z,25.57
2022-08-11T18:50:01.551Z,25.71
2022-08-11T18:52:41.715Z,25.74
2022-08-11T18:55:33.757Z,25.61
2022-08-11T18:58:27.780Z,25.49
2022-08-11T19:01:20.799Z,25.18
2022-08-11T19:04:10.759Z,25.20
2022-08-11T19:06:58.849Z,25.10
2022-08-11T19:09:46.199Z,25.26
2022-08-11T19:12:36.972Z,25.18
2022-08-11T19:15:28.307Z,25.12
2022-08-11T19:18:18.659Z,24.87
2022-08-11T19:21:08.873Z,24.74
2022-08-11T19:24:06.575Z,24.70
2022-08-11T19:26:53.687Z,24.24
2022-08-11T19:30:07.721Z,24.16
2022-08-11T19:32:55.976Z,24.31
2022-08-11T19:35:45.620Z,24.46
2022-08-11T19:38:32.220Z,24.28
2022-08-11T19:41:52.070Z,24.19
2022-08-11T19:44:26.662Z,24.33
2022-08-11T19:47:14.372Z,24.27
2022-08-11T19:50:02.292Z,24.05
2022-08-11T19:52:49.400Z,23.90
2022-08-11T19:55:36.608Z,23.90
2022-08-11T19:58:26.158Z,23.84
2022-08-11T20:01:12.056Z,23.87
2022-08-11T20:03:57.758Z,23.50
2022-08-11T20:06:43.451Z,23.82
2022-08-11T20:10:04.893Z,23.61
2022-08-11T20:12:37.468Z,23.36
2022-08-11T20:15:26.418Z,23.25
2022-08-11T20:18:13.312Z,23.17
2022-08-11T20:20:59.694Z,23.04
2022-08-11T20:23:46.554Z,23.12
2022-08-11T20:26:33.190Z,22.96
2022-08-11T20:29:20.496Z,23.11
2022-08-11T20:32:09.696Z,23.04
2022-08-11T20:34:58.661Z,23.01
2022-08-11T20:37:50.963Z,22.82
2022-08-11T20:40:40.844Z,22.89
2022-08-11T20:44:07.840Z,22.89
2022-08-11T20:46:45.552Z,22.64
2022-08-11T20:49:40.629Z,22.45
2022-08-11T20:52:32.222Z,22.25
2022-08-11T20:55:25.703Z,22.22
2022-08-11T20:58:18.285Z,22.30
2022-08-11T21:01:07.456Z,22.58
2022-08-11T21:04:06.017Z,22.59
2022-08-11T21:06:54.267Z,22.59
2022-08-11T21:10:01.069Z,22.72
2022-08-11T21:12:50.704Z,22.55
2022-08-11T21:16:01.829Z,22.37
2022-08-11T21:18:51.237Z,22.37
2022-08-11T21:21:45.541Z,21.90
2022-08-11T21:24:37.437Z,22.05
2022-08-11T21:27:32.191Z,22.12
2022-08-11T21:30:19.471Z,21.93
2022-08-11T21:33:05.416Z,21.94
2022-08-11T21:35:51.683Z,21.56
2022-08-11T21:38:37.624Z,21.50
2022-08-11T21:41:25.535Z,21.67
2022-08-11T21:44:12.713Z,21.29
2022-08-11T21:46:59.251Z,21.39
2022-08-11T21:49:46.163Z,21.33
2022-08-11T21:52:32.416Z,21.38
2022-08-11T21:55:18.450Z,21.47
2022-08-11T21:58:05.411Z,21.12
2022-08-11T22:00:52.184Z,21.33
2022-08-11T22:03:49.706Z,21.19
2022-08-11T22:06:36.745Z,21.30
2022-08-11T22:09:23.135Z,21.15
2022-08-11T22:12:29.678Z,21.19
2022-08-11T22:15:15.686Z,21.09
2022-08-11T22:18:02.238Z,20.90
2022-08-11T22:20:50.687Z,20.87
2022-08-11T22:23:38.114Z,20.83
2022-08-11T22:26:25.512Z,20.77
2022-08-11T22:29:11.705Z,20.82
2022-08-11T22:31:59.636Z,20.47
2022-08-11T22:34:52.655Z,20.70
2022-08-11T22:37:41.465Z,20.49
2022-08-11T22:40:28.824Z,20.63
2022-08-11T22:43:14.696Z,20.56
2022-08-11T22:46:00.430Z,20.41
2022-08-11T22:48:49.325Z,20.44
2022-08-11T22:51:38.142Z,20.05
2022-08-11T22:54:25.578Z,20.17
2022-08-11T22:57:12.246Z,20.25
2022-08-11T22:59:59.374Z,20.10
2022-08-11T23:02:48.719Z,20.02
2022-08-11T23:05:35.561Z,20.05
2022-08-11T23:08:22.678Z,20.09
2022-08-11T23:11:09.488Z,19.91
2022-08-11T23:13:55.756Z,19.90
2022-08-11T23:16:42.369Z,19.93
2022-08-11T23:20:08.627Z,20.05
2022-08-11T23:22:49.207Z,19.64
2022-08-11T23:25:36.510Z,19.64
2022-08-11T23:28:23.898Z,19.64
2022-08-11T23:31:15.820Z,19.54
2022-08-11T23:34:39.414Z,19.42
2022-08-11T23:37:19.611Z,19.18
2022-08-11T23:40:05.435Z,19.10
2022-08-11T23:42:59.267Z,19.08
2022-08-11T23:45:45.618Z,19.11
2022-08-11T23:48:33.973Z,18.90
2022-08-11T23:51:21.216Z,18.92
2022-08-11T23:54:08.374Z,18.84
2022-08-11T23:56:54.766Z,18.87
2022-08-11T23:59:40.795Z,18.90
